Time;durP1;ratioP1;P1;durP2;ratioP2;P2;SDS_P1;SDS_P2;PMS_P1;PMS_P2;Temp;Humidity;BMP_temperature;BMP_pressure;BME280_temperature;BME280_humidity;BME280_pressure;Samples;Min_cycle;Max_cycle;Signal;HPM_P1;HPM_P2
2021/04/08 00:00:31;;;;;;;7.07;5.00;;;;;;;;;;4832868;28;21241;-75
2021/04/08 00:02:53;;;;;;;6.40;4.67;;;;;;;;;;4819050;28;21037;-73
2021/04/08 00:05:16;;;;;;;6.80;4.57;;;-0.50;9.90;;;;;;4815356;28;21166;-74
2021/04/08 00:07:39;;;;;;;5.90;4.57;;;;;;;;;;4816161;28;20683;-74
2021/04/08 00:10:01;;;;;;;6.70;4.47;;;;;;;;;;4815996;28;20722;-74
2021/04/08 00:12:23;;;;;;;6.37;4.50;;;;;;;;;;4815470;28;20675;-75
2021/04/08 00:14:45;;;;;;;4.80;4.03;;;;;;;;;;4816369;28;20645;-73
2021/04/08 00:17:08;;;;;;;6.20;4.77;;;;;;;;;;4816720;28;20601;-75
2021/04/08 00:19:30;;;;;;;5.00;4.23;;;;;;;;;;4816763;28;20973;-75
2021/04/08 00:21:53;;;;;;;6.77;4.83;;;-0.80;19.20;;;;;;4816418;28;20260;-74
2021/04/08 00:24:15;;;;;;;5.90;3.97;;;;;;;;;;4816000;28;21056;-74
2021/04/08 00:26:37;;;;;;;6.03;4.60;;;;;;;;;;4816907;28;21153;-74
2021/04/08 00:29:00;;;;;;;6.10;4.30;;;;;;;;;;4816943;28;20605;-74
2021/04/08 00:31:22;;;;;;;5.73;4.07;;;;;;;;;;4816135;28;20621;-74
2021/04/08 00:33:44;;;;;;;5.83;4.30;;;;;;;;;;4816180;28;20648;-75
2021/04/08 00:36:07;;;;;;;6.87;4.10;;;-0.90;19.00;;;;;;4816499;28;20188;-74
2021/04/08 00:38:29;;;;;;;5.07;4.57;;;-0.90;21.10;;;;;;4816607;28;20614;-75
2021/04/08 00:40:52;;;;;;;6.87;3.93;;;;;;;;;;4816374;28;20621;-74
2021/04/08 00:43:14;;;;;;;5.60;3.90;;;;;;;;;;4816354;28;20671;-74
2021/04/08 00:45:37;;;;;;;6.87;4.37;;;;;;;;;;4816318;28;20606;-75
2021/04/08 00:47:59;;;;;;;5.80;3.67;;;;;;;;;;4816577;28;21170;-75
2021/04/08 00:50:22;;;;;;;5.27;3.70;;;-1.00;19.00;;;;;;4814636;28;20625;-74
2021/04/08 00:52:49;;;;;;;4.27;3.40;;;-1.00;19.20;;;;;;4814943;28;20670;-74
2021/04/08 00:55:13;;;;;;;6.53;4.07;;;-1.00;19.60;;;;;;4815799;28;20649;-74
2021/04/08 00:57:36;;;;;;;4.53;3.60;;;;;;;;;;4816090;28;20672;-74
2021/04/08 00:59:58;;;;;;;5.43;3.70;;;;;;;;;;4816536;28;20625;-75
2021/04/08 01:02:21;;;;;;;4.97;3.40;;;-1.10;16.20;;;;;;4819282;28;20766;-74
2021/04/08 01:04:43;;;;;;;3.80;3.43;;;;;;;;;;4828202;28;20613;-74
2021/04/08 01:07:05;;;;;;;5.07;3.20;;;;;;;;;;4824457;28;21166;-74
2021/04/08 01:09:27;;;;;;;4.87;3.40;;;;;;;;;;4826135;28;21156;-74
2021/04/08 01:11:50;;;;;;;4.13;3.23;;;-0.90;15.00;;;;;;4825378;28;21028;-74
2021/04/08 01:14:13;;;;;;;4.43;3.40;;;-0.90;14.00;;;;;;4825734;28;20636;-75
2021/04/08 01:16:40;;;;;;;5.07;3.10;;;-0.90;12.90;;;;;;4822864;28;20617;-74
2021/04/08 01:19:23;;;;;;;4.67;3.53;;;-0.90;10.20;;;;;;4823224;28;20659;-74
2021/04/08 01:21:52;;;;;;;4.87;3.70;;;-0.90;9.00;;;;;;4805257;28;20644;-74
2021/04/08 01:24:42;;;;;;;3.53;3.23;;;-1.00;9.90;;;;;;4807939;28;20707;-75
2021/04/08 01:27:36;;;;;;;3.70;2.70;;;-0.90;12.20;;;;;;4825607;28;20588;-74
2021/04/08 01:30:33;;;;;;;3.40;3.00;;;-1.00;23.10;;;;;;4821440;28;20593;-74
2021/04/08 01:33:00;;;;;;;4.53;3.47;;;-0.90;12.50;;;;;;4819246;28;20678;-74
2021/04/08 01:35:27;;;;;;;5.33;3.60;;;-0.90;10.70;;;;;;4826814;28;20672;-74
2021/04/08 01:37:53;;;;;;;4.73;4.33;;;-0.80;8.80;;;;;;4821481;28;21265;-75
2021/04/08 01:40:18;;;;;;;6.40;4.17;;;-0.80;8.60;;;;;;4824534;28;20689;-74
2021/04/08 01:42:40;;;;;;;4.93;4.43;;;;;;;;;;4824161;28;20605;-74
2021/04/08 01:45:03;;;;;;;4.57;3.83;;;;;;;;;;4824018;28;20630;-74
2021/04/08 01:47:27;;;;;;;4.50;3.50;;;-0.70;6.10;;;;;;4830909;28;20605;-74
2021/04/08 01:49:52;;;;;;;3.93;2.80;;;-0.60;4.00;;;;;;4828260;28;20624;-74
2021/04/08 01:52:16;;;;;;;3.67;3.27;;;-0.60;4.20;;;;;;4830332;28;21152;-74
2021/04/08 01:54:40;;;;;;;3.37;3.03;;;-0.60;4.40;;;;;;4820819;28;20636;-75
2021/04/08 01:57:05;;;;;;;3.33;2.90;;;-0.50;3.50;;;;;;4825113;28;20629;-74
2021/04/08 01:59:28;;;;;;;3.03;2.73;;;-0.50;2.50;;;;;;4816501;28;21154;-74
2021/04/08 02:01:51;;;;;;;3.60;2.67;;;-0.40;1.00;;;;;;4806031;28;20650;-74
2021/04/08 02:04:14;;;;;;;3.17;2.87;;;-0.30;1.00;;;;;;4805864;28;20705;-75
2021/04/08 02:06:40;;;;;;;3.00;2.70;;;-0.20;1.00;;;;;;4805717;28;21320;-75
2021/04/08 02:09:04;;;;;;;4.50;2.70;;;-0.20;1.00;;;;;;4803575;28;20660;-74
2021/04/08 02:11:27;;;;;;;3.10;2.80;;;;;;;;;;4809928;28;20662;-73
2021/04/08 02:13:51;;;;;;;3.40;2.97;;;-0.10;1.00;;;;;;4809522;28;20663;-75
2021/04/08 02:16:14;;;;;;;3.10;2.73;;;-0.10;1.00;;;;;;4810276;28;21021;-74
2021/04/08 02:18:37;;;;;;;2.80;2.40;;;0.00;1.00;;;;;;4810345;28;20605;-74
2021/04/08 02:21:01;;;;;;;3.60;2.60;;;0.00;1.00;;;;;;4807981;28;20644;-74
2021/04/08 02:23:26;;;;;;;3.13;2.53;;;0.10;1.00;;;;;;4815053;28;20686;-73
2021/04/08 02:25:49;;;;;;;3.83;2.63;;;;;;;;;;4807915;28;20664;-74
2021/04/08 02:28:11;;;;;;;2.67;2.40;;;;;;;;;;4808265;28;20610;-74
2021/04/08 02:30:46;;;;;;;3.27;2.97;;;0.10;1.00;;;;;;4810218;28;20598;-74
2021/04/08 02:33:08;;;;;;;3.13;2.77;;;;;;;;;;4809698;28;20588;-74
2021/04/08 02:35:30;;;;;;;3.20;2.80;;;;;;;;;;4809303;28;20647;-75
2021/04/08 02:37:52;;;;;;;3.37;2.90;;;;;;;;;;4810176;28;20617;-75
2021/04/08 02:40:17;;;;;;;3.10;2.80;;;0.20;1.00;;;;;;4808957;28;20621;-75
2021/04/08 02:42:39;;;;;;;5.07;2.80;;;;;;;;;;4810470;28;20655;-74
2021/04/08 02:45:02;;;;;;;3.87;3.00;;;;;;;;;;4810172;28;20654;-74
2021/04/08 02:47:24;;;;;;;4.57;3.57;;;;;;;;;;4806408;28;21127;-75
2021/04/08 02:49:46;;;;;;;4.00;2.90;;;;;;;;;;4805951;28;20613;-75
2021/04/08 02:52:14;;;;;;;3.37;2.90;;;0.30;1.00;;;;;;4809271;28;21005;-75
2021/04/08 02:54:41;;;;;;;2.90;2.60;;;0.40;1.00;;;;;;4811015;28;20687;-75
2021/04/08 02:57:07;;;;;;;3.67;2.97;;;0.40;1.00;;;;;;4809707;28;20662;-74
2021/04/08 02:59:36;;;;;;;3.87;3.37;;;0.50;1.00;;;;;;4802878;28;20730;-75
2021/04/08 03:02:04;;;;;;;3.93;2.87;;;0.50;1.00;;;;;;4803661;28;20715;-75
2021/04/08 03:04:27;;;;;;;3.23;2.93;;;0.50;1.00;;;;;;4804229;28;20675;-75
2021/04/08 03:06:51;;;;;;;4.07;2.80;;;0.40;1.00;;;;;;4810105;28;20662;-75
2021/04/08 03:09:14;;;;;;;3.47;3.17;;;0.60;1.00;;;;;;4808387;28;20629;-75
2021/04/08 03:11:37;;;;;;;5.40;3.10;;;;;;;;;;4806823;28;21072;-74
2021/04/08 03:14:04;;;;;;;4.47;3.70;;;0.60;99.90;;;;;;4806746;28;20651;-74
2021/04/08 03:16:35;;;;;;;4.27;3.30;;;0.70;99.90;;;;;;4802293;28;20249;-75
2021/04/08 03:18:59;;;;;;;3.77;3.47;;;0.70;45.70;;;;;;4809337;28;20788;-74
2021/04/08 03:21:24;;;;;;;3.63;3.27;;;0.80;1.00;;;;;;4808577;28;20617;-75
2021/04/08 03:23:47;;;;;;;4.07;3.60;;;0.90;1.00;;;;;;4806364;28;20657;-75
2021/04/08 03:26:10;;;;;;;4.20;3.80;;;0.90;99.90;;;;;;4807436;28;20614;-75
2021/04/08 03:28:32;;;;;;;4.50;3.90;;;;;;;;;;4809521;28;20236;-75
2021/04/08 03:30:56;;;;;;;4.43;4.03;;;0.90;99.90;;;;;;4808837;28;20727;-75
2021/04/08 03:33:19;;;;;;;5.63;4.07;;;0.90;1.00;;;;;;4807004;28;21215;-74
2021/04/08 03:35:46;;;;;;;4.63;4.13;;;0.90;1.00;;;;;;4808929;28;20629;-75
2021/04/08 03:38:09;;;;;;;5.00;3.93;;;;;;;;;;4800708;28;20241;-74
2021/04/08 03:40:31;;;;;;;7.70;4.40;;;;;;;;;;4809178;28;20180;-76
2021/04/08 03:42:54;;;;;;;5.27;4.07;;;0.90;1.00;;;;;;4808323;28;21228;-75
2021/04/08 03:45:17;;;;;;;5.43;4.33;;;;;;;;;;4807471;28;20652;-74
2021/04/08 03:47:42;;;;;;;5.30;4.80;;;0.80;1.00;;;;;;4803866;28;20690;-75
2021/04/08 03:50:06;;;;;;;6.53;5.00;;;0.80;99.90;;;;;;4808525;28;20249;-74
2021/04/08 03:52:28;;;;;;;6.10;5.13;;;;;;;;;;4802448;28;20613;-75
2021/04/08 03:54:51;;;;;;;5.53;4.90;;;0.70;1.00;;;;;;4804517;28;20696;-75
2021/04/08 03:57:17;;;;;;;5.63;4.77;;;0.70;1.00;;;;;;4806175;28;21046;-75
2021/04/08 03:59:40;;;;;;;6.83;5.20;;;;;;;;;;4809268;28;20625;-74
2021/04/08 04:02:03;;;;;;;7.27;5.27;;;;;;;;;;4803300;28;20653;-74
2021/04/08 04:04:26;;;;;;;5.57;4.97;;;0.60;3.50;;;;;;4813940;28;20665;-75
2021/04/08 04:06:51;;;;;;;6.57;5.20;;;;;;;;;;4806549;28;20627;-76
2021/04/08 04:09:14;;;;;;;5.13;4.63;;;0.50;53.90;;;;;;4806396;28;20630;-74
2021/04/08 04:11:39;;;;;;;6.63;5.43;;;0.50;75.10;;;;;;4808481;28;20613;-75
2021/04/08 04:14:22;;;;;;;6.33;4.73;;;0.50;90.10;;;;;;4805402;28;20616;-75
2021/04/08 04:17:24;;;;;;;5.77;5.00;;;0.50;95.50;;;;;;4806469;28;20606;-74
2021/04/08 04:19:47;;;;;;;6.73;5.13;;;0.50;99.90;;;;;;4805676;28;20984;-74
2021/04/08 04:22:09;;;;;;;6.33;5.40;;;;;;;;;;4806140;28;20626;-74
2021/04/08 04:24:32;;;;;;;8.13;5.80;;;;;;;;;;4808536;28;21255;-74
2021/04/08 04:26:54;;;;;;;5.67;5.07;;;;;;;;;;4809598;28;20678;-74
2021/04/08 04:29:16;;;;;;;7.37;5.43;;;;;;;;;;4807098;28;20621;-74
2021/04/08 04:31:39;;;;;;;7.07;5.37;;;;;;;;;;4810052;28;20618;-74
2021/04/08 04:34:01;;;;;;;7.57;6.47;;;;;;;;;;4805704;28;21200;-74
2021/04/08 04:36:24;;;;;;;6.67;5.57;;;0.50;99.90;;;;;;4814449;28;21003;-75
2021/04/08 04:38:46;;;;;;;7.73;6.03;;;;;;;;;;4810027;28;20622;-75
2021/04/08 04:41:09;;;;;;;7.30;6.13;;;;;;;;;;4807432;28;20613;-73
2021/04/08 04:43:31;;;;;;;7.67;5.90;;;;;;;;;;4805528;28;20245;-75
2021/04/08 04:45:53;;;;;;;9.17;5.67;;;;;;;;;;4805879;28;20642;-74
2021/04/08 04:48:15;;;;;;;7.40;5.70;;;;;;;;;;4807275;28;21031;-75
2021/04/08 04:50:38;;;;;;;7.27;5.90;;;;;;;;;;4808077;28;21000;-75
2021/04/08 04:53:01;;;;;;;7.07;6.37;;;0.50;99.90;;;;;;4808237;28;20609;-75
2021/04/08 04:55:23;;;;;;;6.67;5.80;;;;;;;;;;4811213;28;20738;-77
2021/04/08 04:57:45;;;;;;;6.90;6.20;;;;;;;;;;4805904;28;20610;-74
2021/04/08 05:00:08;;;;;;;8.43;6.30;;;0.50;99.90;;;;;;4806825;28;20622;-75
2021/04/08 05:02:31;;;;;;;7.90;6.93;;;;;;;;;;4828346;28;20674;-75
2021/04/08 05:04:53;;;;;;;8.20;7.00;;;;;;;;;;4809613;28;20618;-75
2021/04/08 05:07:15;;;;;;;7.90;6.60;;;;;;;;;;4806871;28;20653;-75
2021/04/08 05:09:38;;;;;;;10.13;7.27;;;0.60;99.90;;;;;;4807908;28;20610;-75
2021/04/08 05:12:00;;;;;;;8.50;7.40;;;;;;;;;;4806714;28;20625;-76
2021/04/08 05:14:22;;;;;;;8.97;7.80;;;;;;;;;;4804056;28;20657;-77
2021/04/08 05:16:45;;;;;;;7.87;7.03;;;;;;;;;;4799202;28;21125;-77
2021/04/08 05:19:07;;;;;;;7.67;6.87;;;;;;;;;;4805826;28;20672;-74
2021/04/08 05:21:29;;;;;;;9.30;7.40;;;;;;;;;;4804427;28;20606;-74
2021/04/08 05:23:51;;;;;;;7.73;6.93;;;;;;;;;;4809838;28;20653;-75
2021/04/08 05:26:14;;;;;;;9.50;7.60;;;0.90;99.90;;;;;;4805773;28;20613;-75
2021/04/08 05:28:37;;;;;;;7.93;7.13;;;;;;;;;;4807489;28;20725;-77
2021/04/08 05:30:59;;;;;;;8.33;7.43;;;;;;;;;;4810499;28;20641;-76
2021/04/08 05:33:21;;;;;;;8.73;7.77;;;;;;;;;;4797155;28;20600;-75
2021/04/08 05:35:43;;;;;;;7.80;6.73;;;;;;;;;;4806541;28;20652;-76
2021/04/08 05:38:05;;;;;;;8.17;7.33;;;;;;;;;;4816193;28;20593;-81
2021/04/08 05:40:28;;;;;;;8.60;7.70;;;;;;;;;;4801458;28;20613;-75
2021/04/08 05:42:51;;;;;;;7.60;6.80;;;1.00;99.90;;;;;;4805352;28;20192;-76
2021/04/08 05:45:16;;;;;;;8.80;7.90;;;1.10;99.90;;;;;;4809635;28;20679;-74
2021/04/08 05:47:38;;;;;;;9.63;8.07;;;;;;;;;;4812911;28;21023;-77
2021/04/08 05:50:00;;;;;;;11.47;8.70;;;;;;;;;;4808309;28;20619;-77
2021/04/08 05:52:22;;;;;;;10.80;8.77;;;1.10;99.90;;;;;;4800756;28;20928;-76
2021/04/08 05:54:45;;;;;;;8.20;7.10;;;;;;;;;;4800257;28;20214;-76
2021/04/08 05:57:07;;;;;;;11.33;8.87;;;;;;;;;;4800852;28;21006;-75
2021/04/08 05:59:30;;;;;;;10.70;8.90;;;1.60;99.90;;;;;;4800711;28;20188;-75
2021/04/08 06:01:52;;;;;;;8.03;7.23;;;;;;;;;;4805559;28;20264;-78
2021/04/08 06:04:14;;;;;;;9.57;6.57;;;1.80;99.90;;;;;;4814023;28;20225;-75
2021/04/08 06:06:36;;;;;;;8.67;7.30;;;1.70;99.90;;;;;;4817987;28;20187;-76
2021/04/08 06:08:58;;;;;;;8.40;7.00;;;;;;;;;;4818493;28;20613;-76
2021/04/08 06:11:20;;;;;;;9.60;7.43;;;1.20;97.30;;;;;;4817575;28;20643;-76
2021/04/08 06:13:43;;;;;;;7.73;6.90;;;1.90;85.20;;;;;;4818867;28;20651;-76
2021/04/08 06:16:07;;;;;;;8.43;6.30;;;1.90;85.40;;;;;;4818267;28;20274;-78
2021/04/08 06:18:29;;;;;;;8.00;6.70;;;2.00;83.60;;;;;;4817469;28;20622;-76
2021/04/08 06:20:51;;;;;;;7.77;6.63;;;;;;;;;;4818157;28;20229;-78
2021/04/08 06:23:13;;;;;;;7.97;6.07;;;2.10;73.70;;;;;;4818353;28;20281;-76
2021/04/08 06:25:36;;;;;;;8.17;7.37;;;;;;;;;;4817923;28;20596;-76
2021/04/08 06:27:58;;;;;;;7.23;6.50;;;;;;;;;;4818729;28;20238;-75
2021/04/08 06:30:21;;;;;;;7.30;6.53;;;2.20;67.80;;;;;;4817668;28;20188;-76
2021/04/08 06:32:45;;;;;;;8.70;6.20;;;2.00;61.60;;;;;;4817931;28;20229;-75
2021/04/08 06:35:08;;;;;;;7.40;5.70;;;2.10;60.90;;;;;;4817146;28;20231;-74
2021/04/08 06:37:30;;;;;;;7.43;6.23;;;2.00;59.90;;;;;;4817927;28;20244;-75
2021/04/08 06:39:52;;;;;;;6.80;6.10;;;2.20;59.60;;;;;;4818661;28;20645;-77
2021/04/08 06:42:18;;;;;;;6.60;5.90;;;2.40;53.40;;;;;;4817640;28;20183;-73
2021/04/08 06:44:42;;;;;;;6.03;5.23;;;2.70;73.30;;;;;;4817508;28;20188;-74
2021/04/08 06:47:07;;;;;;;5.80;5.20;;;2.70;57.80;;;;;;4813631;28;20192;-74
2021/04/08 06:49:37;;;;;;;7.20;5.93;;;3.20;86.90;;;;;;4816486;28;20192;-72
2021/04/08 06:52:00;;;;;;;7.40;6.40;;;3.50;80.40;;;;;;4816496;28;20188;-73
2021/04/08 06:54:23;;;;;;;7.73;5.93;;;3.90;67.20;;;;;;4812490;28;20244;-74
2021/04/08 06:56:47;;;;;;;6.23;4.53;;;4.10;1.00;;;;;;4813853;28;20207;-75
2021/04/08 06:59:11;;;;;;;6.07;4.83;;;4.10;1.00;;;;;;4816677;28;20233;-75
2021/04/08 07:01:34;;;;;;;5.50;4.20;;;4.10;1.00;;;;;;4812504;28;20351;-76
2021/04/08 07:03:57;;;;;;;5.43;4.47;;;;;;;;;;4816169;28;20183;-75
2021/04/08 07:06:20;;;;;;;6.10;4.67;;;4.00;1.00;;;;;;4816476;28;20221;-76
2021/04/08 07:08:42;;;;;;;5.20;3.93;;;4.40;1.00;;;;;;4815825;28;20202;-75
2021/04/08 07:11:04;;;;;;;5.33;3.93;;;;;;;;;;4816595;28;20192;-75
2021/04/08 07:13:27;;;;;;;4.53;3.30;;;4.10;1.00;;;;;;4816069;28;20229;-77
2021/04/08 07:15:49;;;;;;;5.60;4.27;;;4.20;99.90;;;;;;4816725;28;20216;-74
2021/04/08 07:18:12;;;;;;;5.30;4.10;;;4.40;1.00;;;;;;4816446;28;20595;-75
2021/04/08 07:20:34;;;;;;;5.13;4.37;;;4.60;99.90;;;;;;4815924;28;20192;-75
2021/04/08 07:23:09;;;;;;;6.30;3.43;;;4.70;99.90;;;;;;4815476;28;20207;-75
2021/04/08 07:25:31;;;;;;;3.13;2.83;;;;;;;;;;4816938;28;20766;-75
2021/04/08 07:27:53;;;;;;;2.80;2.33;;;;;;;;;;4815995;28;20199;-73
2021/04/08 07:30:19;;;;;;;3.13;2.67;;;4.80;1.00;;;;;;4816387;28;20237;-74
2021/04/08 07:32:42;;;;;;;3.97;3.17;;;5.00;1.00;;;;;;4815119;28;20207;-76
2021/04/08 07:35:11;;;;;;;3.63;3.20;;;5.10;99.90;;;;;;4814596;28;20227;-74
2021/04/08 07:37:35;;;;;;;4.80;3.27;;;5.30;99.90;;;;;;4828298;28;20198;-74
2021/04/08 07:40:00;;;;;;;2.97;2.60;;;5.40;34.20;;;;;;4835611;28;20863;-76
2021/04/08 07:42:28;;;;;;;3.70;3.30;;;5.50;90.60;;;;;;4820375;28;20183;-75
2021/04/08 07:44:52;;;;;;;3.83;3.10;;;5.60;99.90;;;;;;4816506;28;20192;-76
2021/04/08 07:47:23;;;;;;;3.83;2.77;;;5.40;1.00;;;;;;4813989;28;20200;-75
2021/04/08 07:49:47;;;;;;;4.50;3.30;;;5.30;1.00;;;;;;4815477;28;20195;-75
2021/04/08 07:52:19;;;;;;;4.83;3.17;;;5.10;99.90;;;;;;4815565;28;20195;-74
2021/04/08 07:54:56;;;;;;;4.53;3.10;;;5.00;1.00;;;;;;4816411;28;20249;-76
2021/04/08 07:57:19;;;;;;;4.40;3.70;;;4.80;99.90;;;;;;4815680;28;20211;-75
2021/04/08 07:59:41;;;;;;;4.47;3.37;;;;;;;;;;4816197;28;20184;-72
2021/04/08 08:02:06;;;;;;;4.23;3.80;;;4.70;99.90;;;;;;4812312;28;20231;-75
2021/04/08 08:04:29;;;;;;;3.93;3.53;;;4.70;99.90;;;;;;4815992;28;20253;-76
2021/04/08 08:06:52;;;;;;;5.60;4.47;;;4.70;99.90;;;;;;4814687;28;20195;-75
2021/04/08 08:09:18;;;;;;;7.90;5.90;;;5.00;1.00;;;;;;4815132;28;20596;-74
2021/04/08 08:11:41;;;;;;;7.80;6.00;;;5.20;99.90;;;;;;4815419;28;20209;-75
2021/04/08 08:14:04;;;;;;;5.67;3.60;;;5.50;99.90;;;;;;4814199;28;20237;-73
2021/04/08 08:16:27;;;;;;;4.03;3.50;;;6.50;99.90;;;;;;4815055;28;20212;-75
2021/04/08 08:18:50;;;;;;;5.33;3.60;;;6.10;1.00;;;;;;4815880;28;20418;-76
2021/04/08 08:21:14;;;;;;;4.30;3.43;;;6.30;27.50;;;;;;4815630;28;20217;-73
2021/04/08 08:23:39;;;;;;;3.53;3.07;;;6.40;1.00;;;;;;4815567;28;20257;-74
2021/04/08 08:26:27;;;;;;;6.00;3.80;;;6.00;1.00;;;;;;4815683;28;20245;-75
2021/04/08 08:28:49;;;;;;;4.37;3.17;;;6.40;1.00;;;;;;4815688;28;20175;-77
2021/04/08 08:31:39;;;;;;;5.30;3.33;;;6.70;1.00;;;;;;4814855;28;20191;-73
2021/04/08 08:34:04;;;;;;;3.50;3.20;;;;;;;;;;4809330;28;20560;-74
2021/04/08 08:36:26;;;;;;;5.30;3.47;;;;;;;;;;4807644;28;20211;-74
2021/04/08 08:38:48;;;;;;;4.10;2.70;;;;;;;;;;4815402;28;20195;-76
2021/04/08 08:41:11;;;;;;;3.50;3.00;;;6.10;1.00;;;;;;4813520;28;20187;-77
2021/04/08 08:43:33;;;;;;;4.20;3.27;;;6.50;1.00;;;;;;4814504;28;20585;-75
2021/04/08 08:45:55;;;;;;;5.10;4.10;;;;;;;;;;4815147;28;20215;-76
2021/04/08 08:48:20;;;;;;;4.57;3.00;;;6.40;1.00;;;;;;4815076;28;20196;-73
2021/04/08 08:50:44;;;;;;;3.13;2.83;;;6.50;1.00;;;;;;4813894;28;20254;-74
2021/04/08 08:53:08;;;;;;;3.43;2.67;;;6.80;1.00;;;;;;4814324;28;20252;-73
2021/04/08 08:55:34;;;;;;;2.97;2.57;;;7.40;1.00;;;;;;4807162;28;20276;-74
2021/04/08 08:57:57;;;;;;;3.80;2.90;;;7.90;1.00;;;;;;4815483;28;20191;-73
2021/04/08 09:00:21;;;;;;;2.27;2.10;;;8.30;1.00;;;;;;4813963;28;20256;-74
2021/04/08 09:02:45;;;;;;;3.03;2.73;;;8.80;1.00;;;;;;4819884;28;20234;-74
2021/04/08 09:05:13;;;;;;;2.60;2.40;;;9.90;1.00;;;;;;4822077;28;20199;-76
2021/04/08 09:07:35;;;;;;;2.20;2.00;;;11.70;1.00;;;;;;4824332;28;20204;-74
2021/04/08 09:10:01;;;;;;;2.20;2.00;;;12.80;99.90;;;;;;4815052;28;20256;-75
2021/04/08 09:12:24;;;;;;;2.47;2.27;;;13.40;99.90;;;;;;4815805;28;20260;-76
2021/04/08 09:14:49;;;;;;;1.87;1.77;;;13.80;99.90;;;;;;4817032;28;20260;-75
2021/04/08 09:17:13;;;;;;;1.47;1.37;;;;;;;;;;4816566;28;20763;-75
2021/04/08 09:19:36;;;;;;;1.80;1.63;;;;;;;;;;4813086;28;20195;-75
2021/04/08 09:22:04;;;;;;;3.00;2.37;;;15.00;99.90;;;;;;4818077;28;20256;-78
2021/04/08 09:24:36;;;;;;;3.43;1.93;;;16.00;99.90;;;;;;4819170;28;20672;-75
2021/04/08 09:27:00;;;;;;;5.33;1.90;;;17.40;99.90;;;;;;4822743;28;20252;-77
2021/04/08 09:29:47;;;;;;;9.90;2.07;;;18.10;99.90;;;;;;4816881;28;20805;-76
2021/04/08 09:32:24;;;;;;;28.00;4.73;;;18.10;99.90;;;;;;4816151;28;20199;-75
2021/04/08 09:35:16;;;;;;;9.33;1.83;;;17.90;99.90;;;;;;4817649;28;20223;-76
2021/04/08 09:38:24;;;;;;;16.23;2.80;;;18.60;99.90;;;;;;4816220;28;20268;-73
2021/04/08 09:40:52;;;;;;;14.77;2.23;;;21.10;99.90;;;;;;4817827;28;20188;-75
2021/04/08 09:43:17;;;;;;;18.87;2.70;;;22.10;99.90;;;;;;4822555;28;20817;-75
2021/04/08 09:45:43;;;;;;;11.23;1.63;;;21.80;99.90;;;;;;4825133;28;20212;-75
2021/04/08 09:48:10;;;;;;;10.47;1.73;;;20.70;99.90;;;;;;4821800;28;20708;-76
2021/04/08 09:50:43;;;;;;;17.30;2.67;;;19.30;99.90;;;;;;4845147;28;20191;-75
2021/04/08 09:53:05;;;;;;;9.90;1.73;;;;;;;;;;4814139;28;20586;-76
2021/04/08 09:55:31;;;;;;;12.67;2.17;;;19.20;99.90;;;;;;4820484;28;20209;-76
2021/04/08 09:58:01;;;;;;;13.23;2.00;;;20.30;99.90;;;;;;4823663;28;20199;-75
2021/04/08 10:00:23;;;;;;;25.07;3.37;;;;;;;;;;4809177;28;20223;-77
2021/04/08 10:02:59;;;;;;;18.47;2.67;;;19.30;99.90;;;;;;4804983;28;20228;-74
2021/04/08 10:05:21;;;;;;;12.60;2.07;;;;;;;;;;4804901;28;20207;-75
2021/04/08 10:07:51;;;;;;;14.53;2.30;;;16.30;99.90;;;;;;4805765;28;20548;-75
2021/04/08 10:10:13;;;;;;;19.57;3.23;;;;;;;;;;4801921;28;20196;-76
2021/04/08 10:12:36;;;;;;;21.63;3.60;;;;;;;;;;4803452;28;20248;-74
2021/04/08 10:14:59;;;;;;;15.13;2.77;;;12.90;99.90;;;;;;4807125;28;20249;-75
2021/04/08 10:17:21;;;;;;;8.90;1.70;;;;;;;;;;4802054;28;20245;-75
2021/04/08 10:19:44;;;;;;;18.87;3.40;;;10.90;99.90;;;;;;4810429;28;20238;-75
2021/04/08 10:22:09;;;;;;;26.40;4.57;;;9.90;99.90;;;;;;4801265;28;20738;-76
2021/04/08 10:24:36;;;;;;;13.67;2.87;;;9.10;99.90;;;;;;4795228;28;20257;-77
2021/04/08 10:26:58;;;;;;;12.37;2.63;;;;;;;;;;4795324;28;20212;-74
2021/04/08 10:29:31;;;;;;;13.87;3.30;;;7.60;99.90;;;;;;4795792;28;20242;-74
2021/04/08 10:31:54;;;;;;;12.30;3.20;;;7.00;99.90;;;;;;4802879;28;20188;-74
2021/04/08 10:34:19;;;;;;;11.70;3.37;;;6.50;16.10;;;;;;4811701;28;20212;-76
2021/04/08 10:36:43;;;;;;;8.30;3.40;;;6.10;99.90;;;;;;4810388;28;20192;-73
2021/04/08 10:39:06;;;;;;;12.63;4.20;;;5.80;99.90;;;;;;4805748;28;20246;-74
2021/04/08 10:41:29;;;;;;;15.03;4.43;;;;;;;;;;4809863;28;20192;-76
2021/04/08 10:43:51;;;;;;;11.03;3.87;;;5.50;99.90;;;;;;4811104;28;20912;-74
2021/04/08 10:46:19;;;;;;;9.83;3.60;;;5.50;99.90;;;;;;4877049;28;20211;-74
2021/04/08 10:48:44;;;;;;;8.23;3.07;;;5.80;99.90;;;;;;4816328;28;20245;-75
2021/04/08 10:51:13;;;;;;;10.13;3.63;;;6.30;1.00;;;;;;4852826;28;20215;-75
2021/04/08 10:53:36;;;;;;;12.70;3.83;;;7.90;22.30;;;;;;4841572;28;20607;-73
2021/04/08 10:56:08;;;;;;;8.20;3.37;;;7.90;1.00;;;;;;4809079;28;20196;-77
2021/04/08 10:58:33;;;;;;;14.90;4.37;;;;;;;;;;4816863;28;20183;-75
2021/04/08 11:00:56;;;;;;;20.07;5.17;;;11.50;99.90;;;;;;4842201;28;20677;-73
2021/04/08 11:03:19;;;;;;;11.13;3.30;;;14.20;99.90;;;;;;4804829;28;20233;-76
2021/04/08 11:05:42;;;;;;;10.17;2.47;;;17.60;99.90;;;;;;4833344;28;20658;-76
2021/04/08 11:08:05;;;;;;;17.67;2.63;;;20.60;99.90;;;;;;4836168;28;20194;-76
2021/04/08 11:10:29;;;;;;;32.60;4.77;;;22.90;99.90;;;;;;4827948;28;20247;-75
2021/04/08 11:12:52;;;;;;;79.67;72.67;;;23.30;99.90;;;;;;4835025;28;20241;-75
2021/04/08 11:15:15;;;;;;;63.53;56.90;;;;;;;;;;4834903;28;20201;-78
2021/04/08 11:17:46;;;;;;;53.33;15.43;;;21.40;99.90;;;;;;4835093;28;20210;-75
2021/04/08 11:20:09;;;;;;;34.30;4.47;;;20.20;99.90;;;;;;4834443;28;20193;-77
2021/04/08 11:22:34;;;;;;;23.90;3.33;;;18.90;99.90;;;;;;4834697;28;20208;-74
2021/04/08 11:25:15;;;;;;;18.20;2.37;;;17.50;99.90;;;;;;4834663;28;20661;-76
2021/04/08 11:27:40;;;;;;;20.90;2.77;;;16.30;99.90;;;;;;4825446;28;20613;-74
2021/04/08 11:30:03;;;;;;;18.90;2.63;;;15.20;99.90;;;;;;4834592;28;20224;-75
2021/04/08 11:32:26;;;;;;;25.53;3.43;;;;;;;;;;4823936;28;20199;-74
2021/04/08 11:34:51;;;;;;;14.73;2.47;;;13.40;99.90;;;;;;4832409;28;20256;-75
2021/04/08 11:37:14;;;;;;;14.30;2.70;;;12.50;99.90;;;;;;4834743;28;20586;-75
2021/04/08 11:39:37;;;;;;;18.73;3.70;;;11.70;99.90;;;;;;4833690;28;20307;-74
2021/04/08 11:42:16;;;;;;;24.40;4.67;;;10.90;99.90;;;;;;4833308;28;20251;-73
2021/04/08 11:44:39;;;;;;;16.37;4.90;;;;;;;;;;4830358;28;20220;-76
2021/04/08 11:47:11;;;;;;;10.80;3.27;;;9.30;99.90;;;;;;4832122;28;20268;-75
2021/04/08 11:49:43;;;;;;;13.00;3.53;;;8.50;99.90;;;;;;4830242;28;20535;-75
2021/04/08 11:52:16;;;;;;;27.93;6.23;;;7.80;99.90;;;;;;4833168;28;20199;-75
2021/04/08 11:55:01;;;;;;;23.43;8.90;;;7.30;99.90;;;;;;4835064;28;20679;-75
2021/04/08 11:57:23;;;;;;;20.50;10.33;;;;;;;;;;4818677;28;20244;-74
2021/04/08 11:59:45;;;;;;;11.00;4.53;;;;;;;;;;4833964;28;20222;-74
2021/04/08 12:02:07;;;;;;;24.27;7.63;;;6.30;99.90;;;;;;4831397;28;20218;-75
2021/04/08 12:04:30;;;;;;;15.27;5.00;;;;;;;;;;4834704;28;20232;-74
2021/04/08 12:06:53;;;;;;;9.67;3.93;;;6.40;1.00;;;;;;4832873;28;20226;-74
2021/04/08 12:09:16;;;;;;;15.10;5.47;;;;;;;;;;4825329;28;20199;-74
2021/04/08 12:11:50;;;;;;;14.17;4.97;;;7.00;1.00;;;;;;4827162;28;20207;-75
2021/04/08 12:14:12;;;;;;;14.60;5.13;;;;;;;;;;4832702;28;20194;-75
2021/04/08 12:16:35;;;;;;;18.47;5.63;;;;;;;;;;4833237;28;20194;-75
2021/04/08 12:18:57;;;;;;;6.97;2.13;;;17.30;99.90;;;;;;4834474;28;20195;-76
2021/04/08 12:21:20;;;;;;;13.63;2.57;;;21.00;99.90;;;;;;4832771;28;20191;-76
2021/04/08 12:23:42;;;;;;;8.30;1.60;;;;;;;;;;4832723;28;20202;-75
2021/04/08 12:26:05;;;;;;;7.07;1.30;;;;;;;;;;4834091;28;20246;-76
2021/04/08 12:28:28;;;;;;;15.93;2.53;;;28.60;99.90;;;;;;4827648;28;20221;-77
2021/04/08 12:30:57;;;;;;;13.83;2.20;;;;;;;;;;4823184;28;20246;-76
2021/04/08 12:33:22;;;;;;;13.97;2.27;;;32.20;99.90;;;;;;4824863;28;20190;-79
2021/04/08 12:35:46;;;;;;;9.27;1.60;;;33.70;99.90;;;;;;4834321;28;20181;-74
2021/04/08 12:38:08;;;;;;;8.70;1.52;;;;;;;;;;4829965;28;20187;-75
2021/04/08 12:40:31;;;;;;;20.20;3.08;;;;;;;;;;4833344;28;20591;-73
2021/04/08 12:42:53;;;;;;;13.98;2.30;;;;;;;;;;4852506;28;20616;-73
2021/04/08 12:45:16;;;;;;;16.55;2.50;;;37.20;99.90;;;;;;4833867;28;20275;-74
2021/04/08 12:47:38;;;;;;;18.33;2.80;;;;;;;;;;4827661;28;20778;-76
2021/04/08 12:50:01;;;;;;;7.50;1.35;;;;;;;;;;4829695;28;20179;-73
2021/04/08 12:52:23;;;;;;;9.20;1.63;;;;;;;;;;4833276;28;20251;-72
2021/04/08 12:54:45;;;;;;;7.68;1.38;;;;;;;;;;4832999;28;20236;-76
2021/04/08 12:57:07;;;;;;;11.57;2.00;;;;;;;;;;4825883;28;20194;-74
2021/04/08 12:59:30;;;;;;;11.37;2.00;;;;;;;;;;4833535;28;20195;-73
2021/04/08 13:01:53;;;;;;;11.07;2.03;;;23.90;99.90;;;;;;4830846;28;20230;-74
2021/04/08 13:04:15;;;;;;;15.00;2.53;;;;;;;;;;4832887;28;20265;-72
2021/04/08 13:06:37;;;;;;;14.93;2.67;;;;;;;;;;4832936;28;20197;-73
2021/04/08 13:08:59;;;;;;;15.37;2.80;;;;;;;;;;4833208;28;20249;-72
2021/04/08 13:11:23;;;;;;;14.07;2.50;;;;;;;;;;4833421;28;20184;-72
2021/04/08 13:13:45;;;;;;;11.57;2.07;;;;;;;;;;4832986;28;20236;-74
2021/04/08 13:16:07;;;;;;;10.37;1.83;;;;;;;;;;4833452;28;20189;-73
2021/04/08 13:18:30;;;;;;;19.00;3.33;;;;;;;;;;4833362;28;20195;-75